Terminal Aerodrome Forecast
Issued by NWS

Home | Current Version | Previous Version | Graphics & Text | Print | Product List | Glossary On
Versions: 1 2 3 4 5 6 7 8 9 10 11 12 13 14 15 16 17 18 19 20 21 22 23 24 25
000
FTUS43 KBIS 160532
TAFDIK
TAF
KDIK 160532Z 1606/1706 VRB03KT 3SM BR BKN005
     FM160800 30004KT 3/4SM BR BKN008
     FM160900 30004KT 1/2SM FG SCT003
     FM161200 30004KT 1SM BR SCT010
     FM161500 33006KT P6SM FEW080
     FM161900 02006KT P6SM FEW250=

USA.gov is the U.S. government's official web portal to all federal, state and local government web resources and services.